Aviation Digital Data Service (ADDS)

Output produced by METARs form (2206 UTC 28 May 2017)
found at http://aviationweather.gov/adds/metars/
 
KBGR 281720Z 2818/2918 VRB03KT P6SM SCT200 
     FM290700 16004KT P6SM BKN008 
     FM291300 15006KT P6SM BKN010